BAW169 EGLL-ZSPD
Flight info
| Callsign | BAW169 |
|---|---|
| Flight time | N/A |
| Altitude | 33000 |
| Route | DET L6 DVR UL9 KONAN UL607 MATUG DCT BOMBI DCT LEPSA DCT RTB DCT PINQI DCT PESAT DCT TEGRI DCT OSTAL DCT LUGEB DCT UDROS UM859 KARDE/N0488F350 UN644 ROLIN N644 ADEKI DCT LEYLA N161 GASBI/K0906F350 N161 GILAK/K0887F370 N161 SARIN/K0896S1070 A368 TCH/K0887S1130 A368 FKG W188 LIKMI DCT DKO W64 LAXIB W560 TODAM B208 SQ/K0887S1190 B208 HFE R343 SASAN SAS91A |
| Aircraft | B77W/H-SDE1E2E3FGHIJ2J3J4J5M1RWXY/LB1D1 |
Departure
| Time | N/A |
|---|---|
| Airport | London Heathrow Airport (EGLL) |
Arrival
| Time | 2026-05-07 21:06 |
|---|---|
| Airport | Shanghai Pudong International Airport (ZSPD) |
| Time | Latitude | Longitude | Altitude | Speed | Heading |
|---|---|---|---|---|---|
| 2026-05-07 19:31 | 38.63242 | 112.33225 | 28297 ft | 520 kts | 173° |
| 2026-05-07 19:31 | 38.60884 | 112.34030 | 28592 ft | 524 kts | 173° |
| 2026-05-07 19:31 | 38.48513 | 112.38252 | 30406 ft | 532 kts | 173° |
| 2026-05-07 19:32 | 38.39442 | 112.41344 | 31920 ft | 533 kts | 173° |
| 2026-05-07 19:32 | 38.22910 | 112.46962 | 34309 ft | 532 kts | 174° |
| 2026-05-07 19:32 | 38.10211 | 112.51260 | 36024 ft | 529 kts | 175° |
| 2026-05-07 19:32 | 37.99577 | 112.54848 | 37324 ft | 526 kts | 175° |
| 2026-05-07 19:33 | 37.92432 | 112.57251 | 37321 ft | 524 kts | 175° |
| 2026-05-07 19:33 | 37.85203 | 112.59639 | 37290 ft | 520 kts | 179° |
| 2026-05-07 19:34 | 37.81605 | 112.60500 | 37523 ft | 519 kts | 180° |
| 2026-05-07 19:34 | 37.78136 | 112.61284 | 37413 ft | 514 kts | 180° |
| 2026-05-07 19:34 | 37.74549 | 112.62100 | 37125 ft | 513 kts | 180° |
| 2026-05-07 19:34 | 37.70978 | 112.63125 | 37502 ft | 520 kts | 176° |
| 2026-05-07 19:35 | 37.67451 | 112.64311 | 37301 ft | 519 kts | 175° |
| 2026-05-07 19:35 | 37.63889 | 112.65524 | 37285 ft | 518 kts | 176° |
| 2026-05-07 19:35 | 37.57467 | 112.67697 | 37290 ft | 519 kts | 175° |
| 2026-05-07 19:36 | 37.50435 | 112.70068 | 37298 ft | 516 kts | 176° |
| 2026-05-07 19:36 | 37.43677 | 112.72330 | 37308 ft | 519 kts | 176° |
| 2026-05-07 19:37 | 37.36678 | 112.74668 | 37320 ft | 516 kts | 176° |
| 2026-05-07 19:37 | 37.30342 | 112.76777 | 37330 ft | 514 kts | 176° |
| 2026-05-07 19:38 | 37.24616 | 112.78679 | 37332 ft | 512 kts | 176° |
| 2026-05-07 19:38 | 37.17606 | 112.81000 | 37336 ft | 515 kts | 176° |
| 2026-05-07 19:39 | 37.10529 | 112.83340 | 37331 ft | 514 kts | 176° |
| 2026-05-07 19:39 | 37.04729 | 112.85254 | 37328 ft | 514 kts | 175° |
| 2026-05-07 19:40 | 36.96501 | 112.87974 | 37326 ft | 512 kts | 175° |
| 2026-05-07 19:40 | 36.89523 | 112.90273 | 37323 ft | 514 kts | 175° |
| 2026-05-07 19:41 | 36.82524 | 112.92577 | 37320 ft | 512 kts | 175° |
| 2026-05-07 19:41 | 36.75602 | 112.94851 | 37322 ft | 512 kts | 176° |
| 2026-05-07 19:42 | 36.68589 | 112.97147 | 37328 ft | 517 kts | 176° |
| 2026-05-07 19:42 | 36.62158 | 112.99255 | 37319 ft | 513 kts | 176° |
| 2026-05-07 19:43 | 36.55216 | 113.01524 | 37318 ft | 511 kts | 176° |
| 2026-05-07 19:43 | 36.48165 | 113.03820 | 37317 ft | 514 kts | 176° |
| 2026-05-07 19:44 | 36.41058 | 113.06134 | 37314 ft | 511 kts | 175° |
| 2026-05-07 19:44 | 36.35219 | 113.08029 | 37321 ft | 514 kts | 175° |
| 2026-05-07 19:45 | 36.27055 | 113.10677 | 37316 ft | 514 kts | 175° |
| 2026-05-07 19:45 | 36.20127 | 113.13377 | 37315 ft | 521 kts | 169° |
| 2026-05-07 19:46 | 36.13794 | 113.16236 | 37316 ft | 522 kts | 169° |
| 2026-05-07 19:46 | 36.06945 | 113.19321 | 37317 ft | 521 kts | 169° |
| 2026-05-07 19:47 | 36.00613 | 113.22164 | 37321 ft | 523 kts | 169° |
| 2026-05-07 19:47 | 35.93610 | 113.25299 | 37321 ft | 523 kts | 169° |
| 2026-05-07 19:48 | 35.86639 | 113.28415 | 37326 ft | 522 kts | 170° |
| 2026-05-07 19:48 | 35.79774 | 113.31484 | 37335 ft | 520 kts | 169° |
| 2026-05-07 19:49 | 35.72865 | 113.34571 | 37339 ft | 523 kts | 169° |
| 2026-05-07 19:49 | 35.66409 | 113.37453 | 37333 ft | 523 kts | 169° |
| 2026-05-07 19:50 | 35.60843 | 113.39933 | 37335 ft | 522 kts | 169° |
| 2026-05-07 19:50 | 35.53863 | 113.43030 | 37336 ft | 525 kts | 169° |
| 2026-05-07 19:51 | 35.46951 | 113.46091 | 37331 ft | 523 kts | 169° |
| 2026-05-07 19:51 | 35.39981 | 113.49184 | 37320 ft | 523 kts | 169° |
| 2026-05-07 19:52 | 35.33089 | 113.52254 | 37314 ft | 523 kts | 169° |
| 2026-05-07 19:52 | 35.26436 | 113.55212 | 37299 ft | 522 kts | 169° |
| 2026-05-07 19:53 | 35.19790 | 113.58157 | 37304 ft | 524 kts | 169° |
| 2026-05-07 19:53 | 35.13075 | 113.61132 | 37312 ft | 521 kts | 169° |
| 2026-05-07 19:54 | 35.06213 | 113.64163 | 37307 ft | 525 kts | 169° |
| 2026-05-07 19:54 | 34.99281 | 113.67222 | 37287 ft | 522 kts | 170° |
| 2026-05-07 19:55 | 34.92371 | 113.70264 | 37280 ft | 525 kts | 170° |
| 2026-05-07 19:55 | 34.85475 | 113.73295 | 37283 ft | 520 kts | 170° |
| 2026-05-07 19:56 | 34.79646 | 113.75312 | 37285 ft | 517 kts | 175° |
| 2026-05-07 19:56 | 34.72689 | 113.77544 | 37287 ft | 515 kts | 175° |
| 2026-05-07 19:57 | 34.65640 | 113.79833 | 37287 ft | 514 kts | 175° |
| 2026-05-07 19:57 | 34.58639 | 113.82118 | 37299 ft | 518 kts | 175° |
| 2026-05-07 19:58 | 34.53930 | 113.83891 | 37286 ft | 524 kts | 166° |
| 2026-05-07 19:58 | 34.49456 | 113.86739 | 37287 ft | 539 kts | 154° |
| 2026-05-07 19:58 | 34.46392 | 113.89471 | 37312 ft | 547 kts | 149° |
| 2026-05-07 19:59 | 34.40276 | 113.95345 | 37299 ft | 552 kts | 148° |
| 2026-05-07 19:59 | 34.34169 | 114.01211 | 37295 ft | 550 kts | 148° |
| 2026-05-07 20:00 | 34.28111 | 114.07004 | 37296 ft | 550 kts | 149° |
| 2026-05-07 20:00 | 34.23062 | 114.11819 | 37287 ft | 549 kts | 148° |
| 2026-05-07 20:01 | 34.17018 | 114.17568 | 37292 ft | 550 kts | 148° |
| 2026-05-07 20:01 | 34.10981 | 114.23299 | 37305 ft | 552 kts | 148° |
| 2026-05-07 20:02 | 34.04937 | 114.29024 | 37294 ft | 551 kts | 148° |
| 2026-05-07 20:02 | 33.98856 | 114.34772 | 37300 ft | 553 kts | 148° |
| 2026-05-07 20:03 | 33.92774 | 114.40511 | 37314 ft | 551 kts | 148° |
| 2026-05-07 20:03 | 33.86650 | 114.46280 | 37301 ft | 551 kts | 148° |
| 2026-05-07 20:04 | 33.80582 | 114.51992 | 37296 ft | 553 kts | 147° |
| 2026-05-07 20:04 | 33.74564 | 114.57765 | 37287 ft | 553 kts | 147° |
| 2026-05-07 20:05 | 33.69101 | 114.63001 | 37282 ft | 552 kts | 147° |
| 2026-05-07 20:05 | 33.63529 | 114.69479 | 37257 ft | 559 kts | 136° |
| 2026-05-07 20:06 | 33.58284 | 114.76596 | 37282 ft | 565 kts | 136° |
| 2026-05-07 20:06 | 33.53136 | 114.83813 | 37257 ft | 561 kts | 135° |
| 2026-05-07 20:07 | 33.48279 | 114.90620 | 37274 ft | 563 kts | 135° |
| 2026-05-07 20:07 | 33.43151 | 114.97782 | 37271 ft | 563 kts | 135° |
| 2026-05-07 20:08 | 33.38829 | 115.03803 | 37275 ft | 563 kts | 135° |
| 2026-05-07 20:08 | 33.32809 | 115.12167 | 37278 ft | 563 kts | 135° |
| 2026-05-07 20:09 | 33.28697 | 115.17868 | 37278 ft | 563 kts | 135° |
| 2026-05-07 20:10 | 33.20256 | 115.29539 | 37277 ft | 563 kts | 136° |
| 2026-05-07 20:10 | 33.15102 | 115.36646 | 37290 ft | 562 kts | 135° |
| 2026-05-07 20:11 | 33.09899 | 115.43806 | 37273 ft | 562 kts | 136° |
| 2026-05-07 20:11 | 33.04700 | 115.50947 | 37283 ft | 562 kts | 135° |
| 2026-05-07 20:12 | 32.99557 | 115.57995 | 37292 ft | 562 kts | 135° |
| 2026-05-07 20:12 | 32.94450 | 115.64981 | 37284 ft | 563 kts | 135° |
| 2026-05-07 20:13 | 32.89245 | 115.72089 | 37273 ft | 561 kts | 136° |
| 2026-05-07 20:13 | 32.84203 | 115.79140 | 37266 ft | 559 kts | 135° |
| 2026-05-07 20:14 | 32.79812 | 115.85390 | 37264 ft | 563 kts | 134° |
| 2026-05-07 20:14 | 32.74760 | 115.92561 | 37272 ft | 562 kts | 134° |
| 2026-05-07 20:15 | 32.70000 | 115.99299 | 37272 ft | 560 kts | 135° |
| 2026-05-07 20:15 | 32.65002 | 116.06356 | 37272 ft | 562 kts | 135° |
| 2026-05-07 20:16 | 32.59956 | 116.13464 | 37274 ft | 560 kts | 135° |
| 2026-05-07 20:16 | 32.55146 | 116.20248 | 37278 ft | 563 kts | 134° |
| 2026-05-07 20:17 | 32.50182 | 116.27482 | 37278 ft | 563 kts | 133° |
| 2026-05-07 20:17 | 32.45274 | 116.34631 | 37272 ft | 562 kts | 133° |
| 2026-05-07 20:18 | 32.40323 | 116.41821 | 37269 ft | 559 kts | 134° |
| 2026-05-07 20:18 | 32.35429 | 116.48907 | 37274 ft | 562 kts | 134° |
| 2026-05-07 20:19 | 32.30485 | 116.56051 | 37274 ft | 561 kts | 133° |
| 2026-05-07 20:19 | 32.25554 | 116.63161 | 37273 ft | 560 kts | 133° |
| 2026-05-07 20:20 | 32.20570 | 116.70335 | 37253 ft | 557 kts | 134° |
| 2026-05-07 20:20 | 32.15546 | 116.77454 | 37262 ft | 560 kts | 135° |
| 2026-05-07 20:21 | 32.10992 | 116.83775 | 37259 ft | 556 kts | 135° |
| 2026-05-07 20:21 | 32.05928 | 116.90797 | 37261 ft | 557 kts | 135° |
| 2026-05-07 20:22 | 32.00883 | 116.97784 | 37265 ft | 558 kts | 135° |
| 2026-05-07 20:22 | 31.95896 | 117.04690 | 37262 ft | 557 kts | 135° |
| 2026-05-07 20:23 | 31.90820 | 117.11735 | 37269 ft | 558 kts | 135° |
| 2026-05-07 20:23 | 31.85754 | 117.18755 | 37257 ft | 556 kts | 135° |
| 2026-05-07 20:24 | 31.80984 | 117.25946 | 37250 ft | 563 kts | 124° |
| 2026-05-07 20:24 | 31.77788 | 117.34393 | 37253 ft | 566 kts | 106° |
| 2026-05-07 20:25 | 31.76662 | 117.41972 | 37255 ft | 568 kts | 94° |
| 2026-05-07 20:25 | 31.76081 | 117.50351 | 37254 ft | 568 kts | 93° |
| 2026-05-07 20:26 | 31.75330 | 117.61341 | 37267 ft | 569 kts | 93° |
| 2026-05-07 20:26 | 31.74680 | 117.70658 | 37241 ft | 567 kts | 94° |
| 2026-05-07 20:27 | 31.74012 | 117.80074 | 37241 ft | 567 kts | 94° |
| 2026-05-07 20:27 | 31.73423 | 117.88287 | 37250 ft | 568 kts | 94° |
| 2026-05-07 20:28 | 31.72727 | 117.97875 | 37244 ft | 567 kts | 94° |
| 2026-05-07 20:28 | 31.72038 | 118.07272 | 37247 ft | 567 kts | 94° |
| 2026-05-07 20:29 | 31.71358 | 118.16743 | 37248 ft | 567 kts | 93° |
| 2026-05-07 20:29 | 31.70719 | 118.25989 | 37253 ft | 567 kts | 93° |
| 2026-05-07 20:30 | 31.70102 | 118.34803 | 37256 ft | 566 kts | 93° |
| 2026-05-07 20:30 | 31.69436 | 118.44202 | 37256 ft | 568 kts | 93° |
| 2026-05-07 20:31 | 31.68767 | 118.53519 | 37264 ft | 566 kts | 94° |
| 2026-05-07 20:31 | 31.68091 | 118.62859 | 37269 ft | 568 kts | 94° |
| 2026-05-07 20:32 | 31.67445 | 118.71671 | 37251 ft | 567 kts | 94° |
| 2026-05-07 20:32 | 31.66756 | 118.80999 | 37250 ft | 568 kts | 94° |
| 2026-05-07 20:33 | 31.66070 | 118.90175 | 37259 ft | 568 kts | 94° |
| 2026-05-07 20:33 | 31.65440 | 118.98532 | 37257 ft | 569 kts | 94° |
| 2026-05-07 20:34 | 31.64777 | 119.07906 | 37264 ft | 569 kts | 92° |
| 2026-05-07 20:34 | 31.64322 | 119.17247 | 37259 ft | 568 kts | 92° |
| 2026-05-07 20:35 | 31.63944 | 119.26041 | 37253 ft | 568 kts | 91° |
| 2026-05-07 20:35 | 31.63532 | 119.35387 | 37250 ft | 569 kts | 92° |
| 2026-05-07 20:36 | 31.63104 | 119.44728 | 37261 ft | 567 kts | 92° |
| 2026-05-07 20:36 | 31.62673 | 119.53877 | 37256 ft | 571 kts | 91° |
| 2026-05-07 20:37 | 31.62225 | 119.63173 | 37261 ft | 569 kts | 91° |
| 2026-05-07 20:37 | 31.61782 | 119.72488 | 37246 ft | 568 kts | 91° |
| 2026-05-07 20:38 | 31.61357 | 119.81810 | 37193 ft | 565 kts | 92° |
| 2026-05-07 20:38 | 31.61143 | 119.86430 | 36530 ft | 564 kts | 92° |
| 2026-05-07 20:38 | 31.60927 | 119.91085 | 35241 ft | 576 kts | 92° |
| 2026-05-07 20:38 | 31.60703 | 119.95846 | 33977 ft | 584 kts | 92° |
| 2026-05-07 20:39 | 31.60477 | 120.00616 | 32859 ft | 587 kts | 92° |
| 2026-05-07 20:39 | 31.60244 | 120.05470 | 31722 ft | 589 kts | 92° |
| 2026-05-07 20:39 | 31.60014 | 120.10236 | 30487 ft | 586 kts | 92° |
| 2026-05-07 20:39 | 31.59789 | 120.14856 | 29616 ft | 573 kts | 92° |
| 2026-05-07 20:40 | 31.59563 | 120.19445 | 29261 ft | 550 kts | 92° |
| 2026-05-07 20:40 | 31.59346 | 120.23834 | 28811 ft | 533 kts | 92° |
| 2026-05-07 20:40 | 31.59126 | 120.28132 | 28306 ft | 531 kts | 94° |
| 2026-05-07 20:40 | 31.58838 | 120.30996 | 27833 ft | 543 kts | 99° |
| 2026-05-07 20:41 | 31.57570 | 120.36727 | 26784 ft | 543 kts | 110° |
| 2026-05-07 20:41 | 31.56335 | 120.40949 | 26053 ft | 540 kts | 111° |
| 2026-05-07 20:41 | 31.55103 | 120.45097 | 25336 ft | 538 kts | 111° |
| 2026-05-07 20:41 | 31.53889 | 120.49181 | 24610 ft | 536 kts | 111° |
| 2026-05-07 20:42 | 31.52661 | 120.53310 | 23882 ft | 533 kts | 111° |
| 2026-05-07 20:42 | 31.51451 | 120.57381 | 23168 ft | 530 kts | 111° |
| 2026-05-07 20:42 | 31.50252 | 120.61414 | 22743 ft | 520 kts | 111° |
| 2026-05-07 20:42 | 31.49078 | 120.65365 | 21929 ft | 511 kts | 112° |
| 2026-05-07 20:43 | 31.47908 | 120.69295 | 21038 ft | 501 kts | 112° |
| 2026-05-07 20:43 | 31.46782 | 120.73077 | 20258 ft | 489 kts | 112° |
| 2026-05-07 20:43 | 31.45675 | 120.76788 | 19524 ft | 476 kts | 111° |
| 2026-05-07 20:43 | 31.44594 | 120.80396 | 18817 ft | 464 kts | 112° |
| 2026-05-07 20:44 | 31.43508 | 120.83902 | 18203 ft | 455 kts | 112° |
| 2026-05-07 20:44 | 31.42429 | 120.87357 | 17485 ft | 457 kts | 112° |
| 2026-05-07 20:44 | 31.41349 | 120.90813 | 16754 ft | 458 kts | 111° |
| 2026-05-07 20:44 | 31.40068 | 120.94224 | 16015 ft | 457 kts | 120° |
| 2026-05-07 20:45 | 31.38336 | 120.97319 | 15452 ft | 449 kts | 129° |
| 2026-05-07 20:45 | 31.36431 | 121.00086 | 15356 ft | 433 kts | 131° |
| 2026-05-07 20:45 | 31.34518 | 121.02815 | 15237 ft | 428 kts | 131° |
| 2026-05-07 20:45 | 31.32621 | 121.05512 | 15069 ft | 428 kts | 131° |
| 2026-05-07 20:46 | 31.31374 | 121.07282 | 14946 ft | 427 kts | 131° |
| 2026-05-07 20:46 | 31.28865 | 121.10838 | 14663 ft | 425 kts | 131° |
| 2026-05-07 20:46 | 31.27601 | 121.12630 | 14520 ft | 424 kts | 130° |
| 2026-05-07 20:46 | 31.25078 | 121.16197 | 14282 ft | 422 kts | 130° |
| 2026-05-07 20:47 | 31.23177 | 121.18883 | 14053 ft | 421 kts | 130° |
| 2026-05-07 20:47 | 31.21315 | 121.21511 | 13863 ft | 420 kts | 130° |
| 2026-05-07 20:47 | 31.19447 | 121.24146 | 13683 ft | 419 kts | 129° |
| 2026-05-07 20:47 | 31.17580 | 121.26778 | 13495 ft | 417 kts | 129° |
| 2026-05-07 20:48 | 31.15719 | 121.29400 | 13301 ft | 415 kts | 129° |
| 2026-05-07 20:48 | 31.13892 | 121.32057 | 13100 ft | 413 kts | 124° |
| 2026-05-07 20:48 | 31.12464 | 121.34946 | 12915 ft | 410 kts | 113° |
| 2026-05-07 20:48 | 31.11496 | 121.38084 | 12665 ft | 407 kts | 104° |
| 2026-05-07 20:49 | 31.10748 | 121.41224 | 12384 ft | 405 kts | 103° |
| 2026-05-07 20:49 | 31.10017 | 121.44363 | 12131 ft | 401 kts | 103° |
| 2026-05-07 20:49 | 31.09290 | 121.47499 | 11871 ft | 400 kts | 103° |
| 2026-05-07 20:49 | 31.08561 | 121.50650 | 11627 ft | 399 kts | 104° |
| 2026-05-07 20:50 | 31.07838 | 121.53773 | 11374 ft | 393 kts | 104° |
| 2026-05-07 20:50 | 31.07138 | 121.56799 | 11120 ft | 383 kts | 104° |
| 2026-05-07 20:50 | 31.06455 | 121.59753 | 10896 ft | 373 kts | 104° |
| 2026-05-07 20:50 | 31.05790 | 121.62627 | 10678 ft | 364 kts | 104° |
| 2026-05-07 20:51 | 31.05131 | 121.65435 | 10441 ft | 355 kts | 108° |
| 2026-05-07 20:51 | 31.04081 | 121.68011 | 10220 ft | 344 kts | 126° |
| 2026-05-07 20:51 | 31.02512 | 121.70011 | 9991 ft | 333 kts | 143° |
| 2026-05-07 20:51 | 31.00592 | 121.71496 | 9646 ft | 327 kts | 155° |
| 2026-05-07 20:52 | 30.98562 | 121.72613 | 9323 ft | 320 kts | 160° |
| 2026-05-07 20:52 | 30.96513 | 121.73547 | 9037 ft | 312 kts | 163° |
| 2026-05-07 20:52 | 30.94457 | 121.74380 | 8748 ft | 305 kts | 164° |
| 2026-05-07 20:52 | 30.92459 | 121.75150 | 8392 ft | 302 kts | 164° |
| 2026-05-07 20:53 | 30.90461 | 121.75908 | 8073 ft | 298 kts | 164° |
| 2026-05-07 20:53 | 30.88493 | 121.76651 | 7796 ft | 292 kts | 163° |
| 2026-05-07 20:53 | 30.86548 | 121.77384 | 7542 ft | 288 kts | 163° |
| 2026-05-07 20:53 | 30.84627 | 121.78109 | 7277 ft | 286 kts | 163° |
| 2026-05-07 20:54 | 30.82832 | 121.78786 | 7038 ft | 286 kts | 163° |
| 2026-05-07 20:54 | 30.80899 | 121.79516 | 6779 ft | 287 kts | 163° |
| 2026-05-07 20:54 | 30.78980 | 121.80236 | 6515 ft | 285 kts | 162° |
| 2026-05-07 20:54 | 30.77081 | 121.80962 | 6242 ft | 282 kts | 158° |
| 2026-05-07 20:55 | 30.75518 | 121.82183 | 5971 ft | 275 kts | 129° |
| 2026-05-07 20:55 | 30.74540 | 121.84062 | 5719 ft | 264 kts | 104° |
| 2026-05-07 20:55 | 30.74326 | 121.86092 | 5476 ft | 251 kts | 80° |
| 2026-05-07 20:55 | 30.74601 | 121.88086 | 5244 ft | 244 kts | 72° |
| 2026-05-07 20:56 | 30.75031 | 121.89953 | 5022 ft | 239 kts | 68° |
| 2026-05-07 20:56 | 30.75524 | 121.91785 | 4810 ft | 235 kts | 67° |
| 2026-05-07 20:56 | 30.76086 | 121.93544 | 4585 ft | 226 kts | 53° |
| 2026-05-07 20:56 | 30.77136 | 121.94798 | 4381 ft | 213 kts | 27° |
| 2026-05-07 20:57 | 30.78525 | 121.95300 | 4192 ft | 208 kts | 2° |
| 2026-05-07 20:57 | 30.79966 | 121.95076 | 4014 ft | 210 kts | 348° |
| 2026-05-07 20:57 | 30.81367 | 121.94631 | 3830 ft | 211 kts | 345° |
| 2026-05-07 20:57 | 30.82754 | 121.94065 | 3641 ft | 209 kts | 344° |
| 2026-05-07 20:58 | 30.84133 | 121.93514 | 3456 ft | 207 kts | 345° |
| 2026-05-07 20:58 | 30.85486 | 121.92994 | 3273 ft | 204 kts | 346° |
| 2026-05-07 20:58 | 30.86838 | 121.92491 | 3093 ft | 200 kts | 347° |
| 2026-05-07 20:58 | 30.88137 | 121.92018 | 2898 ft | 194 kts | 347° |
| 2026-05-07 20:59 | 30.89400 | 121.91560 | 2739 ft | 184 kts | 347° |
| 2026-05-07 20:59 | 30.90570 | 121.91135 | 2590 ft | 170 kts | 347° |
| 2026-05-07 20:59 | 30.91677 | 121.90730 | 2451 ft | 165 kts | 347° |
| 2026-05-07 20:59 | 30.92415 | 121.90456 | 2353 ft | 164 kts | 347° |
| 2026-05-07 21:00 | 30.93876 | 121.89910 | 2160 ft | 164 kts | 347° |
| 2026-05-07 21:00 | 30.94973 | 121.89497 | 2020 ft | 163 kts | 347° |
| 2026-05-07 21:00 | 30.96019 | 121.89104 | 1954 ft | 151 kts | 347° |
| 2026-05-07 21:00 | 30.96972 | 121.88748 | 1958 ft | 141 kts | 347° |
| 2026-05-07 21:01 | 30.97887 | 121.88407 | 1973 ft | 133 kts | 348° |
| 2026-05-07 21:01 | 30.98751 | 121.88085 | 1970 ft | 128 kts | 348° |
| 2026-05-07 21:01 | 30.99605 | 121.87766 | 1975 ft | 127 kts | 348° |
| 2026-05-07 21:01 | 31.00446 | 121.87450 | 1977 ft | 127 kts | 348° |
| 2026-05-07 21:02 | 31.01299 | 121.87131 | 1979 ft | 127 kts | 348° |
| 2026-05-07 21:02 | 31.02139 | 121.86816 | 1979 ft | 127 kts | 348° |
| 2026-05-07 21:02 | 31.02984 | 121.86500 | 1982 ft | 127 kts | 348° |
| 2026-05-07 21:02 | 31.03840 | 121.86179 | 1835 ft | 127 kts | 347° |
| 2026-05-07 21:03 | 31.04688 | 121.85861 | 1665 ft | 127 kts | 348° |
| 2026-05-07 21:03 | 31.05536 | 121.85545 | 1497 ft | 127 kts | 347° |
| 2026-05-07 21:03 | 31.06376 | 121.85232 | 1327 ft | 127 kts | 347° |
| 2026-05-07 21:03 | 31.07223 | 121.84910 | 1156 ft | 128 kts | 347° |
| 2026-05-07 21:04 | 31.08077 | 121.84595 | 1000 ft | 127 kts | 347° |
| 2026-05-07 21:04 | 31.08919 | 121.84278 | 829 ft | 128 kts | 346° |
| 2026-05-07 21:04 | 31.09774 | 121.83953 | 659 ft | 128 kts | 347° |
| 2026-05-07 21:04 | 31.10625 | 121.83638 | 492 ft | 129 kts | 346° |
| 2026-05-07 21:05 | 31.11487 | 121.83311 | 305 ft | 129 kts | 346° |
| 2026-05-07 21:05 | 31.12324 | 121.82998 | 152 ft | 129 kts | 347° |
| 2026-05-07 21:05 | 31.13187 | 121.82683 | 29 ft | 124 kts | 345° |
| 2026-05-07 21:05 | 31.13909 | 121.82416 | 28 ft | 89 kts | 342° |
| 2026-05-07 21:06 | 31.14385 | 121.82236 | 28 ft | 53 kts | 342° |
| 2026-05-07 21:06 | 31.14636 | 121.82120 | 28 ft | 34 kts | 328° |
| 2026-05-07 21:06 | 31.14765 | 121.81988 | 28 ft | 14 kts | 311° |
| 2026-05-07 21:06 | 31.14829 | 121.81910 | 28 ft | 12 kts | 316° |
| 2026-05-07 21:07 | 31.14894 | 121.81846 | 28 ft | 11 kts | 325° |
| 2026-05-07 21:07 | 31.14957 | 121.81802 | 28 ft | 9 kts | 320° |
| 2026-05-07 21:07 | 31.14972 | 121.81737 | 28 ft | 8 kts | 259° |
| 2026-05-07 21:07 | 31.14950 | 121.81652 | 28 ft | 13 kts | 252° |
| 2026-05-07 21:08 | 31.14916 | 121.81529 | 28 ft | 17 kts | 252° |
| 2026-05-07 21:08 | 31.14874 | 121.81379 | 28 ft | 20 kts | 252° |
| 2026-05-07 21:08 | 31.14840 | 121.81258 | 28 ft | 9 kts | 252° |
| 2026-05-07 21:08 | 31.14797 | 121.81179 | 28 ft | 16 kts | 200° |
| 2026-05-07 21:09 | 31.14644 | 121.81213 | 28 ft | 24 kts | 162° |
| 2026-05-07 21:09 | 31.14489 | 121.81271 | 28 ft | 21 kts | 162° |
| 2026-05-07 21:09 | 31.14388 | 121.81265 | 28 ft | 13 kts | 223° |
| 2026-05-07 21:09 | 31.14355 | 121.81175 | 28 ft | 12 kts | 252° |
| 2026-05-07 21:10 | 31.14329 | 121.81083 | 28 ft | 11 kts | 252° |
| 2026-05-07 21:10 | 31.14305 | 121.80997 | 28 ft | 11 kts | 250° |
| 2026-05-07 21:10 | 31.14267 | 121.80883 | 28 ft | 13 kts | 218° |
| 2026-05-07 21:10 | 31.14174 | 121.80885 | 28 ft | 13 kts | 162° |
| 2026-05-07 21:11 | 31.14085 | 121.80917 | 28 ft | 13 kts | 162° |
| 2026-05-07 21:11 | 31.13999 | 121.80950 | 28 ft | 12 kts | 162° |
| 2026-05-07 21:11 | 31.13854 | 121.80930 | 28 ft | 7 kts | 194° |
| 2026-05-07 21:12 | 31.13807 | 121.80939 | 28 ft | 6 kts | 161° |
| 2026-05-07 21:12 | 31.13784 | 121.80948 | 28 ft | 1 kts | 161° |
| 2026-05-07 21:12 | 31.13778 | 121.80951 | 28 ft | 0 kts | 161° |